createdAt,value
2023-04-02T00:01:47.452Z,1.60
2023-04-02T00:04:22.485Z,2.20
2023-04-02T00:07:30.265Z,1.92
2023-04-02T00:09:57.865Z,1.75
2023-04-02T00:12:24.586Z,2.08
2023-04-02T00:14:53.962Z,2.28
2023-04-02T00:17:23.695Z,1.70
2023-04-02T00:19:59.230Z,1.90
2023-04-02T00:22:29.509Z,1.52
2023-04-02T00:24:57.122Z,2.03
2023-04-02T00:27:24.102Z,0.85
2023-04-02T00:29:54.205Z,1.67
2023-04-02T00:32:27.436Z,2.42
2023-04-02T00:34:54.989Z,2.63
2023-04-02T00:37:27.625Z,1.95
2023-04-02T00:40:27.272Z,1.67
2023-04-02T00:42:56.794Z,1.80
2023-04-02T00:45:26.411Z,2.00
2023-04-02T00:47:53.260Z,2.35
2023-04-02T00:50:40.647Z,1.85
2023-04-02T00:53:16.605Z,1.83
2023-04-02T00:55:43.848Z,1.50
2023-04-02T00:58:26.897Z,2.00
2023-04-02T01:00:54.158Z,1.60
2023-04-02T01:03:22.984Z,1.88
2023-04-02T01:06:04.330Z,1.88
2023-04-02T01:09:12.806Z,1.63
2023-04-02T01:11:46.533Z,1.73
2023-04-02T01:14:51.258Z,1.85
2023-04-02T01:17:20.489Z,2.03
2023-04-02T01:20:08.368Z,2.05
2023-04-02T01:22:48.166Z,1.40
2023-04-02T01:25:20.875Z,2.70
2023-04-02T01:28:05.162Z,3.00
2023-04-02T01:30:34.557Z,3.70
2023-04-02T01:33:01.341Z,3.45
2023-04-02T01:35:32.079Z,3.72
2023-04-02T01:38:22.723Z,3.40
2023-04-02T01:40:58.418Z,2.92
2023-04-02T01:43:33.444Z,2.95
2023-04-02T01:46:06.119Z,2.88
2023-04-02T01:48:32.786Z,2.83
2023-04-02T01:51:00.641Z,2.75
2023-04-02T01:53:28.769Z,2.70
2023-04-02T01:56:00.714Z,2.50
2023-04-02T01:58:29.309Z,2.55
2023-04-02T02:01:01.714Z,1.63
2023-04-02T02:03:28.885Z,2.78
2023-04-02T02:05:55.913Z,2.80
2023-04-02T02:08:33.193Z,2.33
2023-04-02T02:11:00.296Z,2.60
2023-04-02T02:13:27.048Z,2.83
2023-04-02T02:15:57.738Z,3.08
2023-04-02T02:18:25.764Z,3.72
2023-04-02T02:20:53.238Z,2.33
2023-04-02T02:23:20.821Z,2.05
2023-04-02T02:25:48.291Z,2.88
2023-04-02T02:28:27.733Z,2.80
2023-04-02T02:31:01.533Z,2.92
2023-04-02T02:33:36.302Z,3.15
2023-04-02T02:36:35.853Z,3.25
2023-04-02T02:39:05.876Z,3.30
2023-04-02T02:41:51.994Z,3.33
2023-04-02T02:44:27.724Z,3.30
2023-04-02T02:47:04.321Z,2.83
2023-04-02T02:49:34.148Z,3.55
2023-04-02T02:52:10.462Z,3.60
2023-04-02T02:54:39.724Z,2.45
2023-04-02T02:59:35.114Z,2.60
2023-04-02T03:02:02.370Z,2.95
2023-04-02T03:04:35.774Z,3.22
2023-04-02T03:07:06.717Z,2.67
2023-04-02T03:09:36.523Z,3.15
2023-04-02T03:12:28.563Z,4.88
2023-04-02T03:15:02.670Z,3.05
2023-04-02T03:17:37.290Z,4.00
2023-04-02T03:20:12.093Z,3.15
2023-04-02T03:22:44.200Z,3.95
2023-04-02T03:25:21.464Z,5.25
2023-04-02T03:27:49.769Z,5.15
2023-04-02T03:30:23.159Z,4.88
2023-04-02T03:32:52.877Z,5.75
2023-04-02T03:35:29.678Z,5.15
2023-04-02T03:38:02.305Z,5.35
2023-04-02T03:40:32.251Z,4.28
2023-04-02T03:43:06.560Z,5.03
2023-04-02T03:45:40.598Z,5.30
2023-04-02T03:48:12.192Z,5.18
2023-04-02T03:50:45.542Z,4.53
2023-04-02T03:53:12.494Z,4.32
2023-04-02T03:55:41.123Z,4.43
2023-04-02T03:58:39.873Z,3.92
2023-04-02T04:01:29.234Z,4.25
2023-04-02T04:04:06.399Z,3.83
2023-04-02T04:06:34.992Z,5.50
2023-04-02T04:09:32.503Z,4.22
2023-04-02T04:12:22.256Z,2.75
2023-04-02T04:14:53.178Z,4.47
2023-04-02T04:17:30.760Z,4.68
2023-04-02T04:20:10.518Z,4.75
2023-04-02T04:22:37.882Z,4.90
2023-04-02T04:25:07.748Z,6.75
2023-04-02T04:27:45.288Z,6.45
2023-04-02T04:30:24.660Z,8.88
2023-04-02T04:32:58.405Z,7.30
2023-04-02T04:35:40.351Z,8.05
2023-04-02T04:38:27.752Z,6.95
2023-04-02T04:41:06.091Z,7.05
2023-04-02T04:44:00.754Z,4.97
2023-04-02T04:46:40.827Z,6.75
2023-04-02T04:49:24.494Z,7.10
2023-04-02T04:52:01.415Z,5.80
2023-04-02T04:54:28.730Z,7.70
2023-04-02T04:56:58.009Z,7.95
2023-04-02T04:59:54.498Z,7.95
2023-04-02T05:02:29.506Z,6.55
2023-04-02T05:04:56.974Z,5.97
2023-04-02T05:07:28.962Z,5.43
2023-04-02T05:09:59.842Z,4.57
2023-04-02T05:12:48.479Z,4.40
2023-04-02T05:15:27.729Z,4.20
2023-04-02T05:18:30.308Z,5.43
2023-04-02T05:21:07.335Z,3.72
2023-04-02T05:24:01.638Z,3.45
2023-04-02T05:26:33.596Z,4.28
2023-04-02T05:29:14.668Z,4.18
2023-04-02T05:32:06.436Z,5.22
2023-04-02T05:34:38.611Z,5.32
2023-04-02T05:37:07.232Z,4.95
2023-04-02T05:39:34.009Z,4.25
2023-04-02T05:42:17.869Z,5.05
2023-04-02T05:44:58.625Z,4.97
2023-04-02T05:47:27.894Z,6.40
2023-04-02T05:50:11.118Z,6.90
2023-04-02T05:52:42.571Z,6.32
2023-04-02T05:55:12.430Z,4.93
2023-04-02T06:00:40.021Z,5.53
2023-04-02T06:03:16.439Z,4.70
2023-04-02T06:05:45.360Z,3.80
2023-04-02T06:08:17.932Z,3.40
2023-04-02T06:11:01.892Z,3.72
2023-04-02T06:13:28.904Z,3.90
2023-04-02T06:15:56.307Z,3.50
2023-04-02T06:18:28.083Z,4.57
2023-04-02T06:20:55.059Z,4.68
2023-04-02T06:23:52.512Z,4.00
2023-04-02T06:26:22.114Z,3.55
2023-04-02T06:28:52.444Z,3.92
2023-04-02T06:31:59.008Z,3.50
2023-04-02T06:34:28.257Z,3.97
2023-04-02T06:36:57.760Z,4.30
2023-04-02T06:39:26.274Z,2.90
2023-04-02T06:42:31.718Z,3.33
2023-04-02T06:44:58.538Z,3.35
2023-04-02T06:47:37.831Z,3.00
2023-04-02T06:50:31.342Z,3.45
2023-04-02T06:53:06.477Z,3.55
2023-04-02T06:55:46.722Z,3.65
2023-04-02T06:58:15.779Z,3.67
2023-04-02T07:05:45.892Z,2.63
2023-04-02T07:08:12.570Z,2.45
2023-04-02T07:10:39.483Z,1.20
2023-04-02T07:13:06.441Z,1.85
2023-04-02T07:15:33.415Z,3.00
2023-04-02T07:18:00.697Z,2.58
2023-04-02T07:20:31.285Z,2.15
2023-04-02T07:22:58.318Z,2.08
2023-04-02T07:25:25.943Z,2.70
2023-04-02T07:27:53.062Z,2.75
2023-04-02T07:30:19.891Z,2.60
2023-04-02T07:32:47.112Z,1.48
2023-04-02T07:35:14.005Z,3.03
2023-04-02T07:37:40.817Z,2.22
2023-04-02T07:40:17.180Z,2.15
2023-04-02T07:42:44.090Z,2.25
2023-04-02T07:45:11.159Z,2.92
2023-04-02T07:50:22.829Z,2.63
2023-04-02T07:52:49.663Z,2.90
2023-04-02T07:55:17.009Z,5.47
2023-04-02T07:57:55.827Z,6.20
2023-04-02T08:00:23.808Z,6.25
2023-04-02T08:02:51.405Z,3.20
2023-04-02T08:05:18.652Z,6.97
2023-04-02T08:07:55.614Z,5.53
2023-04-02T08:10:22.816Z,3.85
2023-04-02T08:12:49.883Z,3.15
2023-04-02T08:15:16.812Z,2.35
2023-04-02T08:17:43.584Z,3.67
2023-04-02T08:20:22.207Z,4.43
2023-04-02T08:22:49.852Z,4.05
2023-04-02T08:25:16.946Z,2.63
2023-04-02T08:27:47.029Z,3.88
2023-04-02T08:30:14.491Z,3.53
2023-04-02T08:32:41.582Z,3.63
2023-04-02T08:35:11.078Z,3.50
2023-04-02T08:37:38.144Z,3.05
2023-04-02T08:40:07.392Z,3.50
2023-04-02T08:42:47.102Z,2.95
2023-04-02T08:45:33.372Z,7.35
2023-04-02T08:48:03.515Z,4.38
2023-04-02T08:50:40.095Z,2.72
2023-04-02T08:53:13.016Z,3.53
2023-04-02T08:55:43.105Z,3.08
2023-04-02T08:58:28.652Z,3.85
2023-04-02T09:00:55.896Z,2.75
2023-04-02T09:03:44.103Z,5.10
2023-04-02T09:06:16.434Z,5.68
2023-04-02T09:08:44.520Z,4.22
2023-04-02T09:11:39.636Z,3.28
2023-04-02T09:14:14.344Z,2.53
2023-04-02T09:16:53.219Z,3.65
2023-04-02T09:19:26.190Z,3.25
2023-04-02T09:21:53.048Z,4.68
2023-04-02T09:24:19.790Z,2.92
2023-04-02T09:26:46.537Z,2.70
2023-04-02T09:29:13.448Z,3.13
2023-04-02T09:31:58.118Z,3.05
2023-04-02T09:34:33.397Z,3.58
2023-04-02T09:37:21.417Z,2.70
2023-04-02T09:39:48.064Z,2.80
2023-04-02T09:42:30.876Z,2.55
2023-04-02T09:45:12.854Z,3.22
2023-04-02T09:47:42.180Z,2.83
2023-04-02T09:50:21.435Z,2.83
2023-04-02T09:52:49.157Z,2.60
2023-04-02T09:55:16.111Z,3.67
2023-04-02T09:57:43.433Z,2.67
2023-04-02T10:00:41.663Z,2.70
2023-04-02T10:03:26.701Z,3.45
2023-04-02T10:08:55.822Z,2.50
2023-04-02T10:11:36.508Z,2.58
2023-04-02T10:14:19.401Z,2.70
2023-04-02T10:16:51.980Z,3.72
2023-04-02T10:19:34.776Z,2.80
2023-04-02T10:22:06.186Z,2.53
2023-04-02T10:24:32.892Z,2.53
2023-04-02T10:27:02.837Z,2.75
2023-04-02T10:29:53.895Z,3.38
2023-04-02T10:32:25.592Z,2.05
2023-04-02T10:35:07.535Z,2.75
2023-04-02T10:37:46.345Z,3.28
2023-04-02T10:40:18.760Z,2.53
2023-04-02T10:43:12.373Z,5.05
2023-04-02T10:48:50.650Z,3.03
2023-04-02T10:51:44.917Z,3.05
2023-04-02T10:54:41.274Z,2.40
2023-04-02T10:57:16.745Z,4.10
2023-04-02T10:59:49.062Z,3.33
2023-04-02T11:02:47.579Z,2.83
2023-04-02T11:05:25.212Z,8.63
2023-04-02T11:07:59.774Z,3.83
2023-04-02T11:10:27.762Z,4.35
2023-04-02T11:13:18.607Z,4.07
2023-04-02T11:15:45.363Z,4.57
2023-04-02T11:18:34.234Z,2.65
2023-04-02T11:21:03.842Z,2.28
2023-04-02T11:23:33.114Z,2.28
2023-04-02T11:26:29.063Z,1.70
2023-04-02T11:29:15.814Z,2.35
2023-04-02T11:31:43.490Z,6.07
2023-04-02T11:34:16.340Z,2.65
2023-04-02T11:36:54.970Z,3.30
2023-04-02T11:39:57.354Z,3.13
2023-04-02T11:42:30.186Z,5.70
2023-04-02T11:45:00.409Z,2.95
2023-04-02T11:47:28.223Z,2.05
2023-04-02T11:49:55.001Z,2.60
2023-04-02T11:52:29.056Z,2.33
2023-04-02T11:55:01.638Z,2.75
2023-04-02T11:57:52.266Z,2.38
2023-04-02T12:00:28.710Z,2.55
2023-04-02T12:03:30.934Z,1.60
2023-04-02T12:06:19.810Z,4.05
2023-04-02T12:09:12.739Z,2.10
2023-04-02T12:11:40.503Z,2.38
2023-04-02T12:14:41.693Z,2.45
2023-04-02T12:17:27.168Z,1.80
2023-04-02T12:19:57.243Z,2.85
2023-04-02T12:22:33.926Z,2.05
2023-04-02T12:25:21.702Z,2.00
2023-04-02T12:27:48.986Z,2.30
2023-04-02T12:30:33.916Z,2.65
2023-04-02T12:33:30.621Z,2.75
2023-04-02T12:35:59.281Z,2.28
2023-04-02T12:38:34.279Z,2.78
2023-04-02T12:41:06.584Z,1.70
2023-04-02T12:43:38.068Z,3.75
2023-04-02T12:46:06.212Z,2.92
2023-04-02T12:48:33.682Z,2.47
2023-04-02T12:51:00.862Z,4.50
2023-04-02T12:53:49.402Z,2.95
2023-04-02T12:56:21.728Z,3.72
2023-04-02T12:58:56.282Z,3.15
2023-04-02T13:01:27.589Z,2.88
2023-04-02T13:04:14.990Z,2.80
2023-04-02T13:09:34.490Z,7.93
2023-04-02T13:12:01.732Z,2.33
2023-04-02T13:14:28.659Z,2.83
2023-04-02T13:16:56.158Z,8.55
2023-04-02T13:19:28.161Z,6.85
2023-04-02T13:21:57.025Z,5.63
2023-04-02T13:24:26.414Z,4.80
2023-04-02T13:27:01.219Z,2.13
2023-04-02T13:29:29.140Z,2.75
2023-04-02T13:32:02.033Z,3.25
2023-04-02T13:34:29.090Z,3.95
2023-04-02T13:36:57.330Z,2.95
2023-04-02T13:39:24.377Z,2.25
2023-04-02T13:41:59.119Z,2.45
2023-04-02T13:44:28.212Z,1.80
2023-04-02T13:46:55.787Z,1.70
2023-04-02T13:49:23.347Z,2.47
2023-04-02T13:51:54.865Z,3.20
2023-04-02T13:54:51.742Z,3.00
2023-04-02T13:57:18.730Z,4.88
2023-04-02T13:59:45.662Z,3.80
2023-04-02T14:02:21.698Z,5.22
2023-04-02T14:04:51.121Z,6.35
2023-04-02T14:07:36.619Z,7.95
2023-04-02T14:10:21.526Z,3.28
2023-04-02T14:13:16.046Z,6.43
2023-04-02T14:16:04.207Z,3.80
2023-04-02T14:18:48.630Z,3.80
2023-04-02T14:21:36.916Z,2.75
2023-04-02T14:24:27.726Z,3.55
2023-04-02T14:27:00.456Z,3.40
2023-04-02T14:29:33.837Z,3.13
2023-04-02T14:32:09.067Z,11.30
2023-04-02T14:34:46.757Z,4.25
2023-04-02T14:37:53.064Z,3.45
2023-04-02T14:40:33.836Z,3.80
2023-04-02T14:43:08.663Z,3.20
2023-04-02T14:45:53.607Z,3.45
2023-04-02T14:48:24.808Z,2.80
2023-04-02T14:51:06.378Z,5.38
2023-04-02T14:53:42.176Z,2.10
2023-04-02T14:56:10.602Z,3.80
2023-04-02T14:58:39.335Z,2.92
2023-04-02T15:01:28.279Z,5.93
2023-04-02T15:04:02.527Z,2.17
2023-04-02T15:06:42.074Z,3.60
2023-04-02T15:09:21.097Z,2.92
2023-04-02T15:11:51.463Z,3.50
2023-04-02T15:14:21.810Z,2.85
2023-04-02T15:16:48.535Z,1.90
2023-04-02T15:19:18.949Z,2.63
2023-04-02T15:22:26.772Z,2.97
2023-04-02T15:25:06.809Z,2.85
2023-04-02T15:28:02.561Z,16.17
2023-04-02T15:30:42.330Z,3.17
2023-04-02T15:33:46.412Z,3.10
2023-04-02T15:36:22.240Z,17.15
2023-04-02T15:39:07.772Z,12.25
2023-04-02T15:42:04.696Z,8.23
2023-04-02T15:44:32.179Z,25.52
2023-04-02T15:47:08.013Z,5.22
2023-04-02T15:50:04.070Z,3.85
2023-04-02T15:52:31.332Z,4.20
2023-04-02T15:55:26.385Z,43.33
2023-04-02T15:58:01.563Z,25.92
2023-04-02T16:03:31.823Z,4.63
2023-04-02T16:06:26.620Z,3.95
2023-04-02T16:09:10.238Z,4.90
2023-04-02T16:11:36.989Z,6.95
2023-04-02T16:14:09.344Z,6.70
2023-04-02T16:16:37.101Z,6.28
2023-04-02T16:19:37.942Z,6.93
2023-04-02T16:22:29.661Z,5.93
2023-04-02T16:25:19.449Z,5.88
2023-04-02T16:27:59.524Z,6.78
2023-04-02T16:30:28.939Z,8.63
2023-04-02T16:33:22.003Z,7.22
2023-04-02T16:36:07.169Z,10.88
2023-04-02T16:38:49.027Z,10.57
2023-04-02T16:41:38.737Z,11.40
2023-04-02T16:45:02.028Z,7.95
2023-04-02T16:48:01.145Z,10.70
2023-04-02T16:50:39.769Z,4.97
2023-04-02T16:53:28.066Z,6.47
2023-04-02T16:56:28.596Z,5.18
2023-04-02T16:59:13.902Z,5.72
2023-04-02T17:01:59.009Z,8.30
2023-04-02T17:04:50.671Z,7.57
2023-04-02T17:07:27.970Z,6.07
2023-04-02T17:10:19.613Z,7.18
2023-04-02T17:12:48.145Z,6.93
2023-04-02T17:15:27.659Z,4.22
2023-04-02T17:17:58.269Z,6.07
2023-04-02T17:20:26.033Z,7.22
2023-04-02T17:22:53.402Z,9.00
2023-04-02T17:25:30.684Z,7.93
2023-04-02T17:27:57.713Z,11.80
2023-04-02T17:30:43.686Z,4.93
2023-04-02T17:33:14.790Z,9.23
2023-04-02T17:35:41.425Z,9.45
2023-04-02T17:38:34.736Z,10.13
2023-04-02T17:41:13.680Z,8.25
2023-04-02T17:43:46.199Z,7.93
2023-04-02T17:46:46.505Z,4.97
2023-04-02T17:49:24.841Z,5.93
2023-04-02T17:52:03.522Z,6.90
2023-04-02T17:54:51.587Z,9.45
2023-04-02T17:57:33.300Z,11.15
2023-04-02T18:00:26.050Z,8.52
2023-04-02T18:03:17.207Z,8.27
2023-04-02T18:06:00.886Z,7.45
2023-04-02T18:08:42.720Z,7.97
2023-04-02T18:11:43.543Z,10.77
2023-04-02T18:14:16.147Z,8.95
2023-04-02T18:17:21.475Z,9.35
2023-04-02T18:20:29.818Z,9.10
2023-04-02T18:23:36.750Z,10.77
2023-04-02T18:26:29.633Z,10.57
2023-04-02T18:29:02.175Z,10.18
2023-04-02T18:31:50.431Z,10.15
2023-04-02T18:34:43.141Z,10.95
2023-04-02T18:37:37.589Z,8.15
2023-04-02T18:40:22.899Z,8.75
2023-04-02T18:43:01.859Z,9.98
2023-04-02T18:45:37.399Z,10.80
2023-04-02T18:48:22.301Z,9.35
2023-04-02T18:50:49.196Z,8.27
2023-04-02T18:53:24.111Z,8.07
2023-04-02T18:55:53.988Z,9.25
2023-04-02T18:58:53.147Z,10.57
2023-04-02T19:01:28.321Z,8.15
2023-04-02T19:04:00.738Z,6.30
2023-04-02T19:06:35.836Z,9.80
2023-04-02T19:09:22.548Z,32.25
2023-04-02T19:11:49.291Z,42.17
2023-04-02T19:14:20.753Z,73.22
2023-04-02T19:17:10.850Z,27.23
2023-04-02T19:19:50.152Z,15.07
2023-04-02T19:22:36.813Z,24.27
2023-04-02T19:25:26.578Z,15.10
2023-04-02T19:28:06.352Z,10.82
2023-04-02T19:30:59.384Z,51.55
2023-04-02T19:33:51.833Z,24.02
2023-04-02T19:36:46.766Z,13.63
2023-04-02T19:39:28.362Z,13.13
2023-04-02T19:44:24.644Z,10.40
2023-04-02T19:46:54.080Z,6.72
2023-04-02T19:49:32.272Z,6.47
2023-04-02T19:51:58.992Z,5.15
2023-04-02T19:54:25.847Z,5.32
2023-04-02T19:56:52.573Z,5.63
2023-04-02T19:59:19.375Z,3.97
2023-04-02T20:01:46.684Z,5.35
2023-04-02T20:04:13.957Z,5.20
2023-04-02T20:06:40.825Z,5.60
2023-04-02T20:09:08.819Z,6.63
2023-04-02T20:11:37.113Z,4.82
2023-04-02T20:14:04.284Z,5.10
2023-04-02T20:16:30.990Z,4.85
2023-04-02T20:18:57.862Z,4.95
2023-04-02T20:21:24.533Z,25.02
2023-04-02T20:23:55.494Z,7.72
2023-04-02T20:26:22.821Z,5.45
2023-04-02T20:28:49.680Z,6.50
2023-04-02T20:31:18.152Z,5.82
2023-04-02T20:33:45.094Z,4.95
2023-04-02T20:36:14.734Z,6.60
2023-04-02T20:38:41.682Z,4.90
2023-04-02T20:41:09.150Z,4.57
2023-04-02T20:43:36.294Z,4.88
2023-04-02T20:46:05.706Z,5.35
2023-04-02T20:48:33.539Z,4.75
2023-04-02T20:51:01.920Z,5.22
2023-04-02T20:53:29.569Z,5.30
2023-04-02T20:56:04.626Z,4.60
2023-04-02T20:58:31.364Z,12.38
2023-04-02T21:01:16.908Z,5.40
2023-04-02T21:03:43.862Z,4.93
2023-04-02T21:06:21.495Z,4.78
2023-04-02T21:08:49.092Z,4.50
2023-04-02T21:11:16.749Z,4.43
2023-04-02T21:13:44.389Z,7.38
2023-04-02T21:16:16.103Z,6.60
2023-04-02T21:18:43.499Z,14.90
2023-04-02T21:21:13.573Z,10.90
2023-04-02T21:23:41.012Z,9.20
2023-04-02T21:26:08.613Z,6.25
2023-04-02T21:28:35.383Z,11.23
2023-04-02T21:31:10.956Z,12.52
2023-04-02T21:33:43.311Z,12.10
2023-04-02T21:36:13.176Z,13.48
2023-04-02T21:38:43.928Z,16.02
2023-04-02T21:41:14.756Z,15.25
2023-04-02T21:43:41.909Z,12.70
2023-04-02T21:46:09.483Z,14.32
2023-04-02T21:48:36.343Z,8.88
2023-04-02T21:51:11.083Z,10.55
2023-04-02T21:53:38.028Z,12.60
2023-04-02T21:56:09.958Z,11.60
2023-04-02T21:58:36.807Z,9.90
2023-04-02T22:01:05.447Z,10.38
2023-04-02T22:03:34.188Z,17.23
2023-04-02T22:06:06.133Z,12.65
2023-04-02T22:08:34.175Z,14.48
2023-04-02T22:11:18.686Z,11.50
2023-04-02T22:13:47.441Z,11.65
2023-04-02T22:16:19.539Z,12.63
2023-04-02T22:18:46.712Z,12.85
2023-04-02T22:21:14.477Z,13.82
2023-04-02T22:23:41.605Z,12.35
2023-04-02T22:26:09.456Z,12.38
2023-04-02T22:28:36.700Z,13.25
2023-04-02T22:31:16.215Z,12.30
2023-04-02T22:33:44.562Z,12.27
2023-04-02T22:36:12.396Z,13.85
2023-04-02T22:38:39.192Z,12.45
2023-04-02T22:41:11.972Z,12.95
2023-04-02T22:43:39.801Z,12.43
2023-04-02T22:46:08.212Z,12.82
2023-04-02T22:48:36.024Z,13.45
2023-04-02T22:51:02.994Z,13.77
2023-04-02T22:53:29.729Z,14.80
2023-04-02T22:56:02.352Z,14.00
2023-04-02T22:58:29.086Z,15.05
2023-04-02T23:00:55.722Z,20.20
2023-04-02T23:03:22.379Z,19.83
2023-04-02T23:06:01.953Z,14.77
2023-04-02T23:08:28.800Z,14.88
2023-04-02T23:11:06.827Z,16.75
2023-04-02T23:13:34.447Z,17.42
2023-04-02T23:16:02.391Z,16.45
2023-04-02T23:18:31.530Z,17.25
2023-04-02T23:20:58.374Z,21.38
2023-04-02T23:23:25.776Z,17.38
2023-04-02T23:26:03.356Z,20.27
2023-04-02T23:28:30.257Z,19.65
2023-04-02T23:30:57.141Z,20.52
2023-04-02T23:33:23.842Z,20.25
2023-04-02T23:35:50.526Z,24.25
2023-04-02T23:38:17.175Z,24.25
2023-04-02T23:40:43.804Z,20.90
2023-04-02T23:43:10.655Z,27.35
2023-04-02T23:45:37.359Z,23.95
2023-04-02T23:48:04.660Z,21.90
2023-04-02T23:50:32.569Z,20.90
2023-04-02T23:52:59.208Z,19.02
2023-04-02T23:55:25.985Z,18.85
2023-04-02T23:57:52.639Z,19.20
